Time;durP1;ratioP1;P1;durP2;ratioP2;P2;SDS_P1;SDS_P2;PMS_P1;PMS_P2;Temp;Humidity;BMP_temperature;BMP_pressure;BME280_temperature;BME280_humidity;BME280_pressure;Samples;Min_cycle;Max_cycle;Signal;HPM_P1;HPM_P2
2022/09/12 00:00:34;;;;;;;5.10;4.65;;;;;;;;;;2065003;28;20089;-67
2022/09/12 00:01:53;;;;;;;5.03;4.63;;;;;;;;;;2066713;28;20038;-67
2022/09/12 00:03:12;;;;;;;7.22;4.45;;;;;;;;;;2063916;28;20076;-67
2022/09/12 00:04:31;;;;;;;5.15;4.25;;;;;;;;;;2067420;28;20501;-67
2022/09/12 00:05:50;;;;;;;9.25;4.47;;;;;;;;;;2063026;28;20031;-67
2022/09/12 00:07:08;;;;;;;4.45;4.05;;;;;;;;;;2065442;28;20491;-67
2022/09/12 00:08:27;;;;;;;6.95;4.72;;;;;;;;;;2066843;28;20941;-67
2022/09/12 00:09:46;;;;;;;9.48;4.38;;;;;;;;;;2066051;28;20030;-67
2022/09/12 00:11:06;;;;;;;4.90;4.18;;;;;;;;;;2063034;28;20034;-67
2022/09/12 00:12:25;;;;;;;5.03;4.53;;;;;;;;;;2064630;28;20494;-67
2022/09/12 00:13:44;;;;;;;5.80;4.55;;;;;;;;;;2066146;28;20042;-67
2022/09/12 00:15:04;;;;;;;5.35;4.30;;;;;;;;;;2067562;28;20042;-67
2022/09/12 00:16:24;;;;;;;7.10;5.25;;;;;;;;;;2066180;28;20026;-67
2022/09/12 00:17:43;;;;;;;6.72;4.88;;;;;;;;;;2065121;28;20116;-67
2022/09/12 00:19:03;;;;;;;5.70;3.80;;;;;;;;;;2066447;28;20486;-67
2022/09/12 00:20:22;;;;;;;5.78;4.03;;;;;;;;;;2065443;28;20553;-67
2022/09/12 00:21:41;;;;;;;6.40;4.80;;;;;;;;;;2066181;28;20018;-67
2022/09/12 00:23:00;;;;;;;7.65;4.35;;;;;;;;;;2066165;28;20031;-67
2022/09/12 00:24:19;;;;;;;6.90;4.43;;;;;;;;;;2065740;28;20026;-67
2022/09/12 00:25:41;;;;;;;5.75;4.03;;;;;;;;;;2067439;28;20030;-67
2022/09/12 00:27:00;;;;;;;5.75;4.40;;;;;;;;;;2065872;28;20483;-67
2022/09/12 00:28:19;;;;;;;4.78;4.38;;;;;;;;;;2067174;28;20037;-67
2022/09/12 00:29:38;;;;;;;5.90;4.10;;;;;;;;;;2066596;28;20038;-65
2022/09/12 00:30:57;;;;;;;6.78;4.97;;;;;;;;;;2057016;28;20423;-66
2022/09/12 00:32:16;;;;;;;6.72;4.75;;;;;;;;;;2061599;28;20035;-66
2022/09/12 00:33:35;;;;;;;5.85;4.25;;;;;;;;;;2065463;28;20502;-66
2022/09/12 00:34:54;;;;;;;10.85;5.18;;;;;;;;;;2064759;28;20062;-66
2022/09/12 00:36:22;;;;;;;5.00;4.32;;;;;;;;;;2065285;28;20030;-66
2022/09/12 00:37:41;;;;;;;4.78;4.38;;;;;;;;;;2065556;28;20042;-66
2022/09/12 00:39:00;;;;;;;5.68;4.53;;;;;;;;;;2066217;28;20039;-66
2022/09/12 00:40:19;;;;;;;7.13;5.13;;;;;;;;;;2063868;28;20030;-66
2022/09/12 00:41:38;;;;;;;5.82;4.35;;;;;;;;;;2062003;28;20038;-66
2022/09/12 00:42:57;;;;;;;7.72;4.57;;;;;;;;;;2065831;28;20061;-66
2022/09/12 00:44:19;;;;;;;6.15;4.75;;;;;;;;;;2062654;28;20046;-66
2022/09/12 00:45:41;;;;;;;7.07;4.60;;;;;;;;;;2063532;28;20038;-66
2022/09/12 00:47:04;;;;;;;7.47;4.80;;;;;;;;;;2064736;28;20030;-66
2022/09/12 00:48:29;;;;;;;5.57;4.72;;;;;;;;;;2066170;28;20498;-66
2022/09/12 00:49:48;;;;;;;10.02;4.60;;;;;;;;;;2065019;28;20029;-66
2022/09/12 00:51:07;;;;;;;7.47;5.07;;;;;;;;;;2062197;28;20030;-66
2022/09/12 00:52:29;;;;;;;5.18;4.22;;;;;;;;;;2062456;28;20113;-66
2022/09/12 00:53:49;;;;;;;5.90;4.35;;;;;;;;;;2066002;28;20030;-66
2022/09/12 00:55:16;;;;;;;5.60;4.65;;;;;;;;;;2065414;28;20506;-66
2022/09/12 00:56:35;;;;;;;5.85;4.45;;;;;;;;;;2064789;28;20038;-66
2022/09/12 00:57:57;;;;;;;5.60;4.95;;;;;;;;;;2067746;28;20034;-66
2022/09/12 00:59:21;;;;;;;8.52;5.60;;;;;;;;;;2065522;28;20105;-66
2022/09/12 01:00:40;;;;;;;6.22;4.90;;;;;;;;;;2061115;28;20547;-67
2022/09/12 01:01:59;;;;;;;4.22;3.88;;;;;;;;;;2061120;28;20030;-66
2022/09/12 01:03:21;;;;;;;7.65;4.57;;;;;;;;;;2063566;28;20030;-66
2022/09/12 01:04:40;;;;;;;4.07;3.78;;;;;;;;;;2063132;28;20031;-66
2022/09/12 01:06:15;;;;;;;4.53;3.78;;;;;;;;;;2059286;28;20482;-66
2022/09/12 01:07:34;;;;;;;7.43;4.35;;;;;;;;;;2062242;28;20046;-66
2022/09/12 01:08:54;;;;;;;4.72;4.18;;;;;;;;;;2063044;28;20034;-66
2022/09/12 01:10:13;;;;;;;4.72;4.22;;;;;;;;;;2060859;28;20023;-66
2022/09/12 01:11:37;;;;;;;6.13;4.72;;;;;;;;;;2065066;28;20414;-66
2022/09/12 01:12:57;;;;;;;6.82;4.70;;;;;;;;;;2061930;28;20437;-66
2022/09/12 01:14:16;;;;;;;7.32;4.70;;;;;;;;;;2062093;28;20030;-66
2022/09/12 01:15:36;;;;;;;6.80;4.80;;;;;;;;;;2061830;28;20511;-66
2022/09/12 01:16:55;;;;;;;6.85;3.95;;;;;;;;;;2063113;28;20030;-66
2022/09/12 01:18:17;;;;;;;6.47;4.18;;;;;;;;;;2057821;28;20565;-66
2022/09/12 01:19:40;;;;;;;5.53;4.93;;;;;;;;;;2064514;28;20172;-66
2022/09/12 01:21:10;;;;;;;5.38;4.88;;;;;;;;;;2061677;28;20018;-66
2022/09/12 01:22:46;;;;;;;6.53;5.90;;;;;;;;;;2060441;28;20303;-67
2022/09/12 01:24:23;;;;;;;7.03;5.28;;;;;;;;;;2063452;28;20026;-66
2022/09/12 01:25:42;;;;;;;5.38;4.88;;;;;;;;;;2063545;28;20379;-66
2022/09/12 01:27:20;;;;;;;5.97;5.47;;;;;;;;;;2062023;28;20473;-66
2022/09/12 01:28:42;;;;;;;7.88;5.88;;;;;;;;;;2062019;28;20046;-66
2022/09/12 01:30:24;;;;;;;11.10;5.47;;;;;;;;;;2063210;28;20045;-67
2022/09/12 01:31:48;;;;;;;10.43;5.93;;;;;;;;;;2061422;28;20058;-66
2022/09/12 01:33:25;;;;;;;13.80;6.63;;;;;;;;;;2061640;28;20046;-67
2022/09/12 01:34:50;;;;;;;10.82;6.75;;;;;;;;;;2059315;28;20391;-66
2022/09/12 01:36:09;;;;;;;7.65;6.85;;;;;;;;;;2060831;28;20457;-67
2022/09/12 01:37:32;;;;;;;9.68;6.55;;;;;;;;;;2062788;28;20042;-67
2022/09/12 01:38:59;;;;;;;7.10;6.22;;;;;;;;;;2060448;28;20054;-67
2022/09/12 01:40:22;;;;;;;7.80;7.00;;;;;;;;;;2058541;28;20034;-69
2022/09/12 01:41:40;;;;;;;;;;;;;;;;;;2063225;28;20113;-67
2022/09/12 01:43:06;;;;;;;8.13;7.15;;;;;;;;;;2061005;28;19910;-67
2022/09/12 01:44:37;;;;;;;13.57;8.10;;;;;;;;;;2064266;28;20027;-67
2022/09/12 01:46:12;;;;;;;8.90;7.32;;;;;;;;;;2061452;28;20035;-67
2022/09/12 01:47:40;;;;;;;9.45;6.90;;;;;;;;;;2062585;28;20491;-67
2022/09/12 01:49:01;;;;;;;8.00;7.15;;;;;;;;;;2062579;28;20042;-67
2022/09/12 01:50:23;;;;;;;9.38;6.93;;;;;;;;;;2062139;28;20386;-67
2022/09/12 01:52:01;;;;;;;10.32;7.35;;;;;;;;;;2063973;28;20042;-67
2022/09/12 01:53:37;;;;;;;9.13;7.70;;;;;;;;;;2063002;28;20042;-68
2022/09/12 01:55:08;;;;;;;9.23;8.18;;;;;;;;;;2063417;28;20411;-67
2022/09/12 01:56:29;;;;;;;12.30;8.93;;;;;;;;;;2064125;28;20047;-67
2022/09/12 01:57:55;;;;;;;7.85;6.35;;;;;;;;;;2061489;28;20066;-67
2022/09/12 01:59:22;;;;;;;8.98;7.72;;;;;;;;;;2062788;28;22446;-67
2022/09/12 02:01:01;;;;;;;11.43;8.40;;;;;;;;;;2060989;28;20068;-67
2022/09/12 02:02:34;;;;;;;8.68;7.78;;;;;;;;;;2054929;28;20027;-67
2022/09/12 02:04:09;;;;;;;10.75;9.13;;;;;;;;;;2055093;28;20031;-67
2022/09/12 02:05:51;;;;;;;11.93;9.57;;;;;;;;;;2052279;28;20279;-66
2022/09/12 02:07:13;;;;;;;9.40;8.55;;;;;;;;;;2060564;28;20027;-67
2022/09/12 02:08:39;;;;;;;11.90;9.43;;;;;;;;;;2056345;28;20030;-67
2022/09/12 02:10:03;;;;;;;11.32;7.93;;;;;;;;;;2054614;28;20493;-67
2022/09/12 02:11:21;;;;;;;11.43;9.32;;;;;;;;;;2054948;28;20479;-66
2022/09/12 02:12:46;;;;;;;10.60;8.77;;;;;;;;;;2053447;28;20027;-67
2022/09/12 02:14:08;;;;;;;14.25;10.07;;;;;;;;;;2054930;28;20034;-67
2022/09/12 02:15:31;;;;;;;11.73;8.55;;;;;;;;;;2051756;28;20066;-67
2022/09/12 02:16:53;;;;;;;10.45;8.93;;;;;;;;;;2055267;28;20039;-67
2022/09/12 02:18:14;;;;;;;10.85;8.20;;;;;;;;;;2052320;28;20031;-67
2022/09/12 02:19:38;;;;;;;11.30;9.30;;;;;;;;;;2052233;28;20439;-67
2022/09/12 02:20:59;;;;;;;16.40;10.52;;;;;;;;;;2054169;28;20495;-67
2022/09/12 02:22:20;;;;;;;8.88;7.90;;;;;;;;;;2054167;28;20392;-67
2022/09/12 02:23:42;;;;;;;15.00;11.90;;;;;;;;;;2052906;28;20031;-66
2022/09/12 02:25:02;;;;;;;12.82;8.30;;;;;;;;;;2054724;28;20058;-66
2022/09/12 02:26:29;;;;;;;9.95;7.53;;;;;;;;;;2053858;28;20031;-66
2022/09/12 02:28:00;;;;;;;7.65;6.70;;;;;;;;;;2052891;28;20615;-66
2022/09/12 02:29:20;;;;;;;10.48;6.18;;;;;;;;;;2054548;28;20427;-66
2022/09/12 02:30:42;;;;;;;10.07;6.80;;;;;;;;;;2054890;28;20038;-66
2022/09/12 02:32:10;;;;;;;9.02;6.05;;;;;;;;;;2053068;28;20406;-66
2022/09/12 02:33:34;;;;;;;7.25;5.78;;;;;;;;;;2053125;28;20484;-66
2022/09/12 02:35:06;;;;;;;9.50;6.13;;;;;;;;;;2054352;28;20515;-66
2022/09/12 02:36:35;;;;;;;8.95;5.85;;;;;;;;;;2054696;28;20031;-67
2022/09/12 02:37:57;;;;;;;10.63;6.70;;;;;;;;;;2054389;28;20117;-66
2022/09/12 02:39:20;;;;;;;6.65;5.80;;;;;;;;;;2055917;28;20022;-66
2022/09/12 02:40:39;;;;;;;9.20;5.63;;;;;;;;;;2054899;28;20039;-67
2022/09/12 02:41:59;;;;;;;7.35;6.03;;;;;;;;;;2053530;28;20328;-67
2022/09/12 02:43:18;;;;;;;7.13;5.68;;;;;;;;;;2052845;28;20027;-67
2022/09/12 02:44:38;;;;;;;8.57;6.05;;;;;;;;;;2055909;28;20030;-66
2022/09/12 02:45:57;;;;;;;8.07;5.82;;;;;;;;;;2052868;28;20535;-66
2022/09/12 02:47:18;;;;;;;8.13;6.47;;;;;;;;;;2054288;28;20031;-67
2022/09/12 02:48:40;;;;;;;8.10;6.00;;;;;;;;;;2054704;28;20042;-66
2022/09/12 02:49:59;;;;;;;6.80;5.20;;;;;;;;;;2053423;28;20038;-66
2022/09/12 02:51:19;;;;;;;6.78;6.18;;;;;;;;;;2055122;28;20042;-67
2022/09/12 02:52:39;;;;;;;7.53;5.90;;;;;;;;;;2055738;28;20043;-66
2022/09/12 02:53:58;;;;;;;6.85;5.60;;;;;;;;;;2052842;28;20051;-66
2022/09/12 02:55:17;;;;;;;7.82;5.72;;;;;;;;;;2055211;28;20495;-66
2022/09/12 02:56:40;;;;;;;5.40;4.90;;;;;;;;;;2051564;28;20059;-66
2022/09/12 02:58:01;;;;;;;7.00;5.68;;;;;;;;;;2051505;28;20495;-66
2022/09/12 02:59:21;;;;;;;7.43;5.32;;;;;;;;;;2053384;28;20026;-66
2022/09/12 03:01:00;;;;;;;8.82;6.68;;;;;;;;;;2061386;28;20065;-66
2022/09/12 03:02:26;;;;;;;6.40;5.63;;;;;;;;;;2061371;28;20022;-66
2022/09/12 03:03:48;;;;;;;7.82;6.30;;;;;;;;;;2058765;28;20354;-66
2022/09/12 03:05:23;;;;;;;10.23;5.53;;;;;;;;;;2061694;28;20030;-66
2022/09/12 03:06:42;;;;;;;6.28;5.38;;;;;;;;;;2063985;28;20473;-66
2022/09/12 03:08:04;;;;;;;8.05;6.00;;;;;;;;;;2060051;28;20026;-66
2022/09/12 03:09:36;;;;;;;7.75;5.97;;;;;;;;;;2062435;28;20479;-67
2022/09/12 03:11:01;;;;;;;9.73;5.43;;;;;;;;;;2060823;28;20038;-66
2022/09/12 03:12:28;;;;;;;5.28;4.78;;;;;;;;;;2061788;28;20018;-66
2022/09/12 03:13:50;;;;;;;8.75;5.13;;;;;;;;;;2061111;28;20609;-66
2022/09/12 03:15:09;;;;;;;5.68;4.78;;;;;;;;;;2061874;28;20030;-66
2022/09/12 03:16:50;;;;;;;5.53;4.82;;;;;;;;;;2055756;28;20023;-66
2022/09/12 03:18:13;;;;;;;9.93;5.43;;;;;;;;;;2060680;28;20046;-67
2022/09/12 03:19:38;;;;;;;7.15;4.88;;;;;;;;;;2061757;28;20034;-66
2022/09/12 03:20:57;;;;;;;6.25;5.00;;;;;;;;;;2059903;28;20104;-66
2022/09/12 03:22:19;;;;;;;5.50;5.10;;;;;;;;;;2063149;28;20093;-67
2022/09/12 03:23:44;;;;;;;8.45;5.40;;;;;;;;;;2063674;28;20035;-66
2022/09/12 03:25:03;;;;;;;5.38;4.60;;;;;;;;;;2061001;28;20038;-66
2022/09/12 03:26:28;;;;;;;5.95;5.32;;;;;;;;;;2061832;28;20027;-66
2022/09/12 03:27:47;;;;;;;7.43;5.05;;;;;;;;;;2061689;28;20039;-66
2022/09/12 03:29:06;;;;;;;7.60;5.18;;;;;;;;;;2062899;28;20479;-66
2022/09/12 03:30:25;;;;;;;7.40;4.63;;;;;;;;;;2061146;28;20046;-66
2022/09/12 03:31:49;;;;;;;8.35;5.05;;;;;;;;;;2063309;28;20109;-66
2022/09/12 03:33:13;;;;;;;8.40;4.75;;;;;;;;;;2063317;28;20038;-66
2022/09/12 03:34:32;;;;;;;7.13;4.68;;;;;;;;;;2061484;28;20113;-66
2022/09/12 03:35:52;;;;;;;5.85;4.75;;;;;;;;;;2062374;28;20042;-66
2022/09/12 03:37:10;;;;;;;5.45;4.78;;;;;;;;;;2063145;28;20030;-66
2022/09/12 03:38:29;;;;;;;6.07;4.95;;;;;;;;;;2063623;28;20026;-66
2022/09/12 03:39:48;;;;;;;8.35;4.65;;;;;;;;;;2060912;28;20125;-66
2022/09/12 03:41:07;;;;;;;11.00;4.82;;;;;;;;;;2063218;28;20031;-66
2022/09/12 03:42:26;;;;;;;8.73;4.72;;;;;;;;;;2062600;28;20026;-67
2022/09/12 03:43:45;;;;;;;6.97;5.20;;;;;;;;;;2062172;28;20041;-66
2022/09/12 03:45:05;;;;;;;6.43;4.85;;;;;;;;;;2060105;28;20035;-66
2022/09/12 03:46:24;;;;;;;6.35;4.53;;;;;;;;;;2063276;28;20022;-66
2022/09/12 03:47:43;;;;;;;6.95;5.03;;;;;;;;;;2059598;28;20058;-66
2022/09/12 03:49:02;;;;;;;10.32;5.22;;;;;;;;;;2062034;28;20087;-66
2022/09/12 03:50:21;;;;;;;5.32;4.75;;;;;;;;;;2061579;28;20104;-66
2022/09/12 03:51:39;;;;;;;4.85;4.43;;;;;;;;;;2057324;28;20071;-67
2022/09/12 03:52:59;;;;;;;7.68;4.97;;;;;;;;;;2061402;28;20035;-67
2022/09/12 03:54:18;;;;;;;13.20;6.78;;;;;;;;;;2061122;28;20026;-67
2022/09/12 03:55:40;;;;;;;6.75;4.93;;;;;;;;;;2060781;28;20070;-67
2022/09/12 03:56:59;;;;;;;7.25;5.75;;;;;;;;;;2054241;28;20039;-67
2022/09/12 03:58:18;;;;;;;10.07;6.20;;;;;;;;;;2059096;28;20113;-67
2022/09/12 03:59:37;;;;;;;7.57;6.95;;;;;;;;;;2053566;28;20336;-67
2022/09/12 04:00:56;;;;;;;10.45;6.38;;;;;;;;;;2058202;28;20439;-67
2022/09/12 04:02:15;;;;;;;8.27;6.63;;;;;;;;;;2061263;28;20046;-67
2022/09/12 04:03:34;;;;;;;7.05;6.22;;;;;;;;;;2060861;28;20062;-67
2022/09/12 04:04:53;;;;;;;10.68;7.55;;;;;;;;;;2062409;28;20507;-68
2022/09/12 04:06:14;;;;;;;14.45;12.55;;;;;;;;;;2062813;28;20046;-68
2022/09/12 04:07:33;;;;;;;18.08;13.25;;;;;;;;;;2062551;28;20597;-67
2022/09/12 04:08:53;;;;;;;23.15;17.00;;;;;;;;;;2061058;28;20486;-67
2022/09/12 04:10:12;;;;;;;14.65;9.25;;;;;;;;;;2055469;28;20042;-67
2022/09/12 04:11:31;;;;;;;21.60;12.63;;;;;;;;;;2060077;28;20439;-67
2022/09/12 04:12:50;;;;;;;13.88;11.40;;;;;;;;;;2061807;28;20026;-68
2022/09/12 04:14:09;;;;;;;12.65;11.27;;;;;;;;;;2063510;28;20424;-67
2022/09/12 04:15:28;;;;;;;19.25;12.35;;;;;;;;;;2060536;28;20415;-67
2022/09/12 04:16:47;;;;;;;14.55;9.45;;;;;;;;;;2063143;28;20498;-66
2022/09/12 04:18:06;;;;;;;14.60;9.32;;;;;;;;;;2063977;28;20034;-66
2022/09/12 04:19:26;;;;;;;15.80;11.25;;;;;;;;;;2061308;28;20027;-67
2022/09/12 04:20:45;;;;;;;13.00;11.18;;;;;;;;;;2060967;28;20030;-66
2022/09/12 04:22:04;;;;;;;14.98;11.13;;;;;;;;;;2063158;28;20066;-66
2022/09/12 04:23:23;;;;;;;14.90;10.55;;;;;;;;;;2062340;28;20018;-67
2022/09/12 04:24:41;;;;;;;15.75;11.48;;;;;;;;;;2061127;28;20027;-66
2022/09/12 04:26:01;;;;;;;18.40;12.10;;;;;;;;;;2060580;28;20069;-67
2022/09/12 04:27:20;;;;;;;15.95;11.55;;;;;;;;;;2062561;28;20208;-67
2022/09/12 04:28:40;;;;;;;17.08;11.73;;;;;;;;;;2062889;28;20398;-67
2022/09/12 04:29:59;;;;;;;22.67;13.35;;;;;;;;;;2062562;28;20038;-67
2022/09/12 04:31:19;;;;;;;24.92;17.83;;;;;;;;;;2061763;28;20038;-67
2022/09/12 04:32:39;;;;;;;18.38;13.18;;;;;;;;;;2063130;28;20058;-67
2022/09/12 04:33:59;;;;;;;27.15;16.25;;;;;;;;;;2062588;28;20386;-67
2022/09/12 04:35:18;;;;;;;21.50;16.52;;;;;;;;;;2061710;28;20340;-67
2022/09/12 04:36:37;;;;;;;23.85;15.95;;;;;;;;;;2061648;28;20077;-67
2022/09/12 04:37:56;;;;;;;18.55;13.18;;;;;;;;;;2060632;28;20030;-66
2022/09/12 04:39:15;;;;;;;18.70;12.55;;;;;;;;;;2059502;28;20023;-67
2022/09/12 04:40:35;;;;;;;16.60;11.52;;;;;;;;;;2060086;28;20027;-67
2022/09/12 04:41:54;;;;;;;12.52;9.75;;;;;;;;;;2062435;28;20027;-66
2022/09/12 04:43:12;;;;;;;9.82;8.45;;;;;;;;;;2060658;28;20042;-67
2022/09/12 04:44:31;;;;;;;9.52;8.38;;;;;;;;;;2059908;28;20042;-67
2022/09/12 04:45:50;;;;;;;9.52;8.50;;;;;;;;;;2059928;28;20057;-67
2022/09/12 04:47:09;;;;;;;11.95;8.77;;;;;;;;;;2056507;28;20435;-67
2022/09/12 04:48:28;;;;;;;13.65;9.23;;;;;;;;;;2060157;28;20046;-67
2022/09/12 04:49:47;;;;;;;11.73;8.88;;;;;;;;;;2062524;28;20038;-66
2022/09/12 04:51:07;;;;;;;12.43;9.30;;;;;;;;;;2060920;28;20046;-67
2022/09/12 04:52:26;;;;;;;20.10;11.95;;;;;;;;;;2061377;28;20388;-67
2022/09/12 04:53:49;;;;;;;18.77;10.80;;;;;;;;;;2061781;28;20038;-67
2022/09/12 04:55:08;;;;;;;17.08;9.90;;;;;;;;;;2059695;28;20034;-67
2022/09/12 04:56:29;;;;;;;17.17;10.77;;;;;;;;;;2061547;28;20069;-67
2022/09/12 04:57:48;;;;;;;17.90;10.48;;;;;;;;;;2062354;28;20078;-67
2022/09/12 04:59:07;;;;;;;14.57;9.93;;;;;;;;;;2059690;28;20050;-67
2022/09/12 05:00:26;;;;;;;19.10;11.23;;;;;;;;;;2061154;28;20674;-66
2022/09/12 05:01:45;;;;;;;15.10;9.88;;;;;;;;;;2063718;28;20038;-67
2022/09/12 05:03:04;;;;;;;15.48;10.50;;;;;;;;;;2064471;28;20041;-66
2022/09/12 05:04:23;;;;;;;16.30;10.13;;;;;;;;;;2060753;28;20479;-66
2022/09/12 05:05:42;;;;;;;17.45;9.88;;;;;;;;;;2055071;28;20038;-67
2022/09/12 05:07:01;;;;;;;18.60;12.85;;;;;;;;;;2056700;28;20109;-66
2022/09/12 05:08:20;;;;;;;19.30;12.13;;;;;;;;;;2066244;28;20025;-67
2022/09/12 05:09:40;;;;;;;23.98;14.25;;;;;;;;;;2065774;28;20027;-66
2022/09/12 05:11:10;;;;;;;32.53;14.98;;;;;;;;;;2062125;28;20026;-67
2022/09/12 05:12:30;;;;;;;20.40;14.02;;;;;;;;;;2061442;28;20593;-67
2022/09/12 05:13:49;;;;;;;24.77;13.75;;;;;;;;;;2062124;28;20038;-66
2022/09/12 05:15:08;;;;;;;24.75;16.17;;;;;;;;;;2060556;28;20105;-68
2022/09/12 05:16:27;;;;;;;24.60;14.57;;;;;;;;;;2062627;28;20046;-67
2022/09/12 05:17:46;;;;;;;21.67;13.57;;;;;;;;;;2061190;28;20042;-68
2022/09/12 05:19:05;;;;;;;25.40;15.27;;;;;;;;;;2064231;28;20034;-66
2022/09/12 05:20:24;;;;;;;24.75;15.30;;;;;;;;;;2064563;28;20125;-67
2022/09/12 05:21:43;;;;;;;24.10;13.93;;;;;;;;;;2062806;28;20062;-66
2022/09/12 05:23:02;;;;;;;23.73;13.65;;;;;;;;;;2061509;28;20038;-67
2022/09/12 05:24:21;;;;;;;33.85;15.75;;;;;;;;;;2063166;28;20034;-66
2022/09/12 05:25:47;;;;;;;26.95;16.13;;;;;;;;;;2064216;28;20074;-68
2022/09/12 05:27:06;;;;;;;23.00;16.35;;;;;;;;;;2062509;28;20058;-67
2022/09/12 05:28:28;;;;;;;29.88;16.58;;;;;;;;;;2063259;28;20023;-68
2022/09/12 05:29:46;;;;;;;26.30;16.05;;;;;;;;;;2062862;28;20398;-67
2022/09/12 05:31:07;;;;;;;25.05;16.05;;;;;;;;;;2063392;28;20023;-67
2022/09/12 05:32:29;;;;;;;25.20;14.95;;;;;;;;;;2063051;28;20101;-67
2022/09/12 05:33:48;;;;;;;27.50;16.20;;;;;;;;;;2062077;28;20066;-67
2022/09/12 05:35:07;;;;;;;35.90;19.05;;;;;;;;;;2062591;28;20026;-67
2022/09/12 05:36:30;;;;;;;22.58;14.27;;;;;;;;;;2062434;28;20499;-67
2022/09/12 05:37:49;;;;;;;27.17;14.82;;;;;;;;;;2060580;28;20613;-67
2022/09/12 05:39:08;;;;;;;28.33;15.02;;;;;;;;;;2063510;28;20066;-67
2022/09/12 05:40:27;;;;;;;21.58;15.15;;;;;;;;;;2062099;28;20031;-67
2022/09/12 05:41:46;;;;;;;27.15;17.90;;;;;;;;;;2063195;28;20054;-67
2022/09/12 05:43:05;;;;;;;21.23;15.23;;;;;;;;;;2063691;28;20026;-66
2022/09/12 05:44:24;;;;;;;24.48;15.70;;;;;;;;;;2063321;28;20368;-66
2022/09/12 05:45:43;;;;;;;28.80;16.33;;;;;;;;;;2062880;28;20428;-67
2022/09/12 05:47:01;;;;;;;25.35;16.55;;;;;;;;;;2060407;28;20038;-66
2022/09/12 05:48:23;;;;;;;26.95;15.52;;;;;;;;;;2061164;28;20054;-66
2022/09/12 05:49:44;;;;;;;22.08;14.20;;;;;;;;;;2063244;28;20053;-66
2022/09/12 05:51:05;;;;;;;22.63;14.25;;;;;;;;;;2063049;28;20018;-66
2022/09/12 05:52:24;;;;;;;17.20;12.40;;;;;;;;;;2066073;28;20030;-68
2022/09/12 05:53:43;;;;;;;16.83;12.23;;;;;;;;;;2060561;28;20121;-67
2022/09/12 05:55:02;;;;;;;23.05;13.23;;;;;;;;;;2056608;28;20454;-66
2022/09/12 05:56:22;;;;;;;25.38;13.27;;;;;;;;;;2060736;28;20026;-67
2022/09/12 05:57:45;;;;;;;23.80;14.80;;;;;;;;;;2060881;28;20046;-67
2022/09/12 05:59:05;;;;;;;21.58;13.88;;;;;;;;;;2060069;28;20030;-68
2022/09/12 06:00:24;;;;;;;21.38;12.50;;;;;;;;;;2058326;28;20407;-67
2022/09/12 06:01:44;;;;;;;21.58;12.43;;;;;;;;;;2060540;28;20030;-69
2022/09/12 06:03:03;;;;;;;18.42;13.77;;;;;;;;;;2061355;28;20034;-68
2022/09/12 06:04:22;;;;;;;14.18;10.52;;;;;;;;;;2063363;28;20336;-67
2022/09/12 06:05:41;;;;;;;16.60;10.63;;;;;;;;;;2060764;28;20038;-68
2022/09/12 06:07:00;;;;;;;18.75;11.02;;;;;;;;;;2062920;28;20062;-66
2022/09/12 06:08:19;;;;;;;17.00;10.68;;;;;;;;;;2063921;28;20448;-67
2022/09/12 06:09:38;;;;;;;16.83;10.13;;;;;;;;;;2063526;28;20034;-67
2022/09/12 06:10:58;;;;;;;21.25;10.90;;;;;;;;;;2060193;28;20030;-66
2022/09/12 06:12:17;;;;;;;17.25;10.52;;;;;;;;;;2060705;28;20069;-68
2022/09/12 06:13:37;;;;;;;16.05;10.57;;;;;;;;;;2061885;28;20066;-66
2022/09/12 06:14:56;;;;;;;15.32;9.15;;;;;;;;;;2063173;28;20034;-65
2022/09/12 06:16:19;;;;;;;15.85;8.77;;;;;;;;;;2063179;28;20042;-66
2022/09/12 06:17:39;;;;;;;15.30;7.72;;;;;;;;;;2061669;28;20026;-66
2022/09/12 06:18:59;;;;;;;10.90;7.50;;;;;;;;;;2063300;28;20113;-67
2022/09/12 06:20:19;;;;;;;10.10;7.30;;;;;;;;;;2063915;28;20555;-66
2022/09/12 06:21:38;;;;;;;11.20;7.30;;;;;;;;;;2061651;28;20109;-67
2022/09/12 06:22:57;;;;;;;11.10;7.30;;;;;;;;;;2054804;28;20039;-66
2022/09/12 06:24:16;;;;;;;13.65;6.75;;;;;;;;;;2060970;28;20042;-66
2022/09/12 06:25:35;;;;;;;8.40;6.18;;;;;;;;;;2064777;28;20058;-66
2022/09/12 06:26:54;;;;;;;9.10;6.40;;;;;;;;;;2061423;28;20030;-67
2022/09/12 06:28:13;;;;;;;10.65;6.13;;;;;;;;;;2061237;28;20038;-66
2022/09/12 06:29:32;;;;;;;7.30;6.28;;;;;;;;;;2062081;28;20426;-67
2022/09/12 06:30:51;;;;;;;7.40;6.35;;;;;;;;;;2060508;28;20423;-67
2022/09/12 06:32:10;;;;;;;9.18;5.80;;;;;;;;;;2064178;28;20482;-67
2022/09/12 06:33:31;;;;;;;10.85;6.63;;;;;;;;;;2063957;28;20038;-67
2022/09/12 06:34:50;;;;;;;9.80;6.22;;;;;;;;;;2062778;28;20054;-67
2022/09/12 06:36:09;;;;;;;14.35;6.88;;;;;;;;;;2063712;28;20026;-67
2022/09/12 06:37:28;;;;;;;11.82;6.07;;;;;;;;;;2062049;28;20034;-67
2022/09/12 06:38:52;;;;;;;12.95;6.68;;;;;;;;;;2061494;28;20038;-67
2022/09/12 06:40:11;;;;;;;12.45;6.80;;;;;;;;;;2061854;28;20042;-67
2022/09/12 06:41:31;;;;;;;10.05;6.63;;;;;;;;;;2063495;28;20105;-67
2022/09/12 06:42:50;;;;;;;12.93;7.13;;;;;;;;;;2060569;28;20038;-67
2022/09/12 06:44:20;;;;;;;9.43;6.55;;;;;;;;;;2062791;28;20490;-67
2022/09/12 06:45:39;;;;;;;13.82;6.07;;;;;;;;;;2061149;28;20031;-67
2022/09/12 06:46:58;;;;;;;11.55;6.38;;;;;;;;;;2063747;28;20034;-67
2022/09/12 06:48:17;;;;;;;12.52;6.25;;;;;;;;;;2061057;28;20030;-67
2022/09/12 06:49:36;;;;;;;11.52;6.95;;;;;;;;;;2064612;28;20034;-67
2022/09/12 06:50:56;;;;;;;12.57;6.53;;;;;;;;;;2061375;28;20034;-67
2022/09/12 06:52:15;;;;;;;12.30;6.43;;;;;;;;;;2059841;28;20031;-67
2022/09/12 06:53:35;;;;;;;11.93;6.68;;;;;;;;;;2062570;28;20027;-67
2022/09/12 06:54:54;;;;;;;7.32;5.70;;;;;;;;;;2061754;28;20027;-67
2022/09/12 06:56:18;;;;;;;14.43;5.22;;;;;;;;;;2060660;28;20022;-67
2022/09/12 06:57:37;;;;;;;8.88;5.07;;;;;;;;;;2061235;28;20136;-67
2022/09/12 06:58:57;;;;;;;7.82;4.75;;;;;;;;;;2062191;28;20034;-67
2022/09/12 07:00:16;;;;;;;7.03;4.47;;;;;;;;;;2058479;28;20129;-67
2022/09/12 07:01:34;;;;;;;5.13;4.72;;;;;;;;;;2061639;28;20101;-67
2022/09/12 07:02:55;;;;;;;10.45;4.07;;;;;;;;;;2055535;28;20027;-67
2022/09/12 07:04:14;;;;;;;12.82;4.88;;;;;;;;;;2059905;28;20098;-67
2022/09/12 07:05:33;;;;;;;7.88;4.22;;;;;;;;;;2062815;28;20026;-67
2022/09/12 07:06:52;;;;;;;7.50;4.22;;;;;;;;;;2063209;28;20034;-67
2022/09/12 07:08:11;;;;;;;7.93;4.32;;;;;;;;;;2063789;28;20030;-67
2022/09/12 07:09:30;;;;;;;7.75;4.00;;;;;;;;;;2061308;28;20837;-67
2022/09/12 07:10:49;;;;;;;5.88;3.70;;;;;;;;;;2062223;28;20490;-67
2022/09/12 07:12:08;;;;;;;11.23;3.83;;;;;;;;;;2060427;28;20026;-67
2022/09/12 07:13:27;;;;;;;4.65;3.40;;;;;;;;;;2062279;28;20478;-67
2022/09/12 07:14:46;;;;;;;5.22;3.53;;;;;;;;;;2061253;28;20030;-67
2022/09/12 07:16:05;;;;;;;4.00;3.40;;;;;;;;;;2062240;28;20027;-66
2022/09/12 07:17:24;;;;;;;8.80;3.03;;;;;;;;;;2060963;28;20038;-67
2022/09/12 07:18:45;;;;;;;7.72;3.13;;;;;;;;;;2062285;28;20042;-66
2022/09/12 07:20:04;;;;;;;4.57;2.70;;;;;;;;;;2062902;28;20105;-67
2022/09/12 07:21:23;;;;;;;4.50;2.40;;;;;;;;;;2059042;28;20117;-67
2022/09/12 07:22:42;;;;;;;2.88;2.25;;;;;;;;;;2061333;28;20498;-67
2022/09/12 07:24:01;;;;;;;6.90;3.17;;;;;;;;;;2060285;28;20475;-67
2022/09/12 07:25:20;;;;;;;6.40;2.60;;;;;;;;;;2061651;28;20038;-67
2022/09/12 07:26:40;;;;;;;5.88;3.10;;;;;;;;;;2063407;28;20442;-67
2022/09/12 07:27:59;;;;;;;10.27;3.38;;;;;;;;;;2061825;28;20414;-69
2022/09/12 07:29:18;;;;;;;8.45;3.47;;;;;;;;;;2062199;28;20069;-67
2022/09/12 07:30:37;;;;;;;5.35;2.75;;;;;;;;;;2062482;28;20499;-67
2022/09/12 07:31:56;;;;;;;7.15;3.25;;;;;;;;;;2061170;28;20478;-67
2022/09/12 07:33:15;;;;;;;9.40;3.53;;;;;;;;;;2061646;28;20074;-66
2022/09/12 07:34:34;;;;;;;8.82;3.70;;;;;;;;;;2060992;28;20058;-67
2022/09/12 07:35:53;;;;;;;5.57;2.90;;;;;;;;;;2062964;28;20039;-67
2022/09/12 07:37:12;;;;;;;9.77;3.42;;;;;;;;;;2062318;28;20062;-67
2022/09/12 07:38:31;;;;;;;6.90;3.17;;;;;;;;;;2060421;28;20488;-67
2022/09/12 07:39:50;;;;;;;6.10;3.22;;;;;;;;;;2060378;28;20038;-67
2022/09/12 07:41:19;;;;;;;6.50;3.13;;;;;;;;;;2056806;28;20026;-67
2022/09/12 07:42:38;;;;;;;9.82;3.47;;;;;;;;;;2063568;28;20030;-67
2022/09/12 07:43:58;;;;;;;5.00;3.17;;;;;;;;;;2061927;28;20023;-67
2022/09/12 07:45:17;;;;;;;12.02;3.70;;;;;;;;;;2060536;28;20457;-67
2022/09/12 07:46:38;;;;;;;7.47;3.45;;;;;;;;;;2060870;28;20480;-67
2022/09/12 07:47:57;;;;;;;5.90;2.25;;;;;;;;;;2064042;28;20524;-67
2022/09/12 07:49:16;;;;;;;7.28;2.45;;;;;;;;;;2062989;28;20053;-66
2022/09/12 07:50:36;;;;;;;3.70;2.40;;;;;;;;;;2060480;28;20042;-67
2022/09/12 07:51:55;;;;;;;8.02;2.35;;;;;;;;;;2061799;28;20042;-67
2022/09/12 07:53:14;;;;;;;3.97;2.63;;;;;;;;;;2062772;28;20059;-67
2022/09/12 07:54:33;;;;;;;2.00;1.90;;;;;;;;;;2063387;28;20042;-66
2022/09/12 07:55:53;;;;;;;6.25;2.33;;;;;;;;;;2063682;28;20399;-69
2022/09/12 07:57:12;;;;;;;5.53;2.30;;;;;;;;;;2061735;28;20030;-67
2022/09/12 07:58:33;;;;;;;4.78;2.17;;;;;;;;;;2062712;28;20026;-67
2022/09/12 07:59:51;;;;;;;5.82;1.92;;;;;;;;;;2056456;28;20047;-68
2022/09/12 08:01:12;;;;;;;4.07;2.15;;;;;;;;;;2061985;28;20022;-67